Airport View

Enter AWOS ICAO identifier for current METAR.

ex. KFNL

KHIO 212353Z 00000KT 10SM BKN039 20/12 A3005 RMK AO2 SLP174 T02000122 10206 20161 56020

22 Sep 2019 00:16

Phone: 503-640-2984

Other Area AWOS: KVUO - KSPB - KPDX - KUAO

TAF KHIO 212328Z 2200/2224 VRB03KT P6SM BKN035 FM220300 01004KT P6SM SCT040 FM221300 17005KT 4SM -DZ OVC050 FM221400 18004KT 4SM -RA BR OVC015 FM221800 VRB05KT 4SM -RA BR OVC007 FM222100 VRB05KT 4SM -RA HZ OVC015